Canefield Airport

Fair
29oC (84oF)

Fair


Winds: East south easterly @ 11kts / 20km/h

Humidity: 56%

Barometric Pressure: 1012 mb

Accumulated Rainfall for May: 12.2 mm

Updated: 18:00 local time (22:00 UTC)

Douglas-Charles Airport

Partly cloudy
27oC (81oF)

Partly cloudy


Winds: East south easterly @ 08kts / 15km/h

Humidity: 71%

Barometric Pressure: 1014 mb

Accumulated Rainfall for May: 28.1 mm

Updated: 18:00 local time (22:00 UTC)

Satellite Imagery

Satellite Imagery
Click image for larger view. (Source: National Hurricane Center).

Aviation Routine Report (METAR)

Douglas-Charles: METAR TDPD 202200Z 12008KT 9999 SCT018 27/22 Q1014=
Canefield: METAR TDCF 202200Z 11011KT 9999 FEW022 29/19 Q1012=